Time;durP1;ratioP1;P1;durP2;ratioP2;P2;SDS_P1;SDS_P2;PMS_P1;PMS_P2;Temp;Humidity;BMP_temperature;BMP_pressure;BME280_temperature;BME280_humidity;BME280_pressure;Samples;Min_cycle;Max_cycle;Signal;HPM_P1;HPM_P2
2022/06/12 00:01:53;;;;;;;11.88;10.52;;;;;;;16.84;100.00;99865.81;5030382;28;20017;-72
2022/06/12 00:04:18;;;;;;;13.13;11.82;;;;;;;16.91;100.00;99869.28;5030329;28;20037;-73
2022/06/12 00:06:44;;;;;;;12.18;10.93;;;;;;;17.05;100.00;99865.00;5033509;28;20108;-72
2022/06/12 00:09:09;;;;;;;13.18;11.38;;;;;;;17.10;100.00;99870.22;5036586;28;20029;-73
2022/06/12 00:11:35;;;;;;;12.95;11.50;;;;;;;17.14;100.00;99871.97;5036955;28;20033;-73
2022/06/12 00:14:03;;;;;;;16.55;11.32;;;;;;;17.16;100.00;99865.00;5036530;28;20025;-73
2022/06/12 00:16:31;;;;;;;12.05;10.80;;;;;;;17.02;100.00;99836.28;5036154;28;20067;-73
2022/06/12 00:18:57;;;;;;;13.00;11.68;;;;;;;17.20;100.00;99876.31;5036697;28;20025;-73
2022/06/12 00:21:24;;;;;;;14.35;11.07;;;;;;;17.14;100.00;99870.22;5036580;28;20026;-74
2022/06/12 00:23:50;;;;;;;12.38;11.07;;;;;;;17.05;100.00;99841.53;5036271;28;20380;-73
2022/06/12 00:26:20;;;;;;;13.48;11.60;;;;;;;17.25;100.00;99856.31;5036285;28;20036;-73
2022/06/12 00:28:46;;;;;;;12.98;10.98;;;;;;;17.30;100.00;99862.41;5036509;28;20021;-74
2022/06/12 00:31:11;;;;;;;13.48;12.05;;;;;;;17.28;100.00;99843.25;5033460;28;20077;-73
2022/06/12 00:33:37;;;;;;;14.02;11.00;;;;;;;17.25;100.00;99861.53;5033756;28;20041;-72
2022/06/12 00:36:04;;;;;;;13.60;11.20;;;;;;;17.23;100.00;99856.28;5033779;28;20049;-73
2022/06/12 00:38:29;;;;;;;14.55;11.40;;;;;;;17.26;100.00;99866.75;5034164;28;20495;-73
2022/06/12 00:40:55;;;;;;;13.32;11.05;;;;;;;17.10;100.00;99808.50;5017006;28;20076;-75
2022/06/12 00:43:21;;;;;;;13.63;10.63;;;;;;;17.33;100.00;99851.94;5033716;28;20029;-72
2022/06/12 00:45:53;;;;;;;12.88;10.50;;;;;;;17.36;100.00;99851.06;5033248;28;20065;-72
2022/06/12 00:48:25;;;;;;;11.93;10.73;;;;;;;17.37;100.00;99853.69;5033587;28;20065;-73
2022/06/12 00:51:13;;;;;;;12.50;11.20;;;;;;;17.40;100.00;99847.59;5018292;28;20080;-73
2022/06/12 00:53:57;;;;;;;15.13;11.95;;;;;;;17.45;100.00;99851.09;5023900;28;20503;-73
2022/06/12 00:56:27;;;;;;;15.82;10.93;;;;;;;17.55;100.00;99847.56;5033374;28;20463;-73
2022/06/12 00:59:02;;;;;;;12.18;10.80;;;;;;;17.60;100.00;99851.03;5033856;28;20087;-73
2022/06/12 01:01:36;;;;;;;12.13;10.73;;;;;;;17.44;100.00;99818.03;5034214;28;20102;-74
2022/06/12 01:06:49;;;;;;;13.95;10.35;;;;;;;17.66;100.00;99850.19;5029660;28;20104;-73
2022/06/12 01:09:22;;;;;;;13.35;11.07;;;;;;;17.69;100.00;99847.53;5028790;28;20029;-74
2022/06/12 01:11:50;;;;;;;12.25;11.05;;;;;;;17.69;100.00;99844.94;5036117;28;20048;-73
2022/06/12 01:14:19;;;;;;;10.10;9.10;;;;;;;17.70;100.00;99846.69;5036233;28;20030;-75
2022/06/12 01:16:48;;;;;;;11.77;8.98;;;;;;;17.63;100.00;99851.06;5035710;28;20480;-72
2022/06/12 01:19:43;;;;;;;11.70;8.98;;;;;;;17.71;100.00;99847.56;5031985;28;20018;-73
2022/06/12 01:22:35;;;;;;;9.48;8.45;;;;;;;17.58;100.00;99846.69;5010450;28;20061;-74
2022/06/12 01:25:06;;;;;;;11.48;9.18;;;;;;;17.58;100.00;99852.81;5010362;28;20065;-75
2022/06/12 01:28:09;;;;;;;11.15;9.20;;;;;;;17.59;100.00;99845.84;5010259;28;20042;-73
2022/06/12 01:30:52;;;;;;;10.30;9.10;;;;;;;17.61;100.00;99851.94;5010309;28;20036;-74
2022/06/12 01:33:44;;;;;;;10.15;9.13;;;;;;;17.61;100.00;99852.78;4994030;28;20508;-74
2022/06/12 01:36:21;;;;;;;12.95;10.10;;;;;;;17.60;100.00;99838.00;4951582;29;20086;-73
2022/06/12 01:38:59;;;;;;;11.20;10.02;;;;;;;17.72;100.00;99844.94;4951656;29;20077;-73
2022/06/12 01:41:47;;;;;;;12.32;9.00;;;;;;;17.68;100.00;99837.13;4941116;29;20040;-74
2022/06/12 01:44:27;;;;;;;11.00;8.87;;;;;;;17.71;100.00;99843.19;4925553;29;20031;-73
2022/06/12 01:47:03;;;;;;;10.10;8.98;;;;;;;17.70;100.00;99854.50;4951685;29;20126;-73
2022/06/12 01:49:41;;;;;;;11.52;8.50;;;;;;;17.65;100.00;99845.81;4944246;29;20031;-73
2022/06/12 01:52:09;;;;;;;9.43;8.43;;;;;;;17.63;100.00;99840.63;4936194;29;20521;-72
2022/06/12 01:54:41;;;;;;;11.00;7.65;;;;;;;17.61;100.00;99846.72;4949182;29;20077;-71
2022/06/12 01:57:16;;;;;;;11.32;6.68;;;;;;;17.44;100.00;99836.28;4951663;29;20184;-72
2022/06/12 01:59:56;;;;;;;8.43;6.60;;;;;;;17.44;100.00;99839.75;4966203;28;20118;-73
2022/06/12 02:02:38;;;;;;;6.80;6.10;;;;;;;17.39;100.00;99836.28;4970932;28;20027;-74
2022/06/12 02:05:19;;;;;;;6.72;5.75;;;;;;;17.31;100.00;99835.44;4970578;28;20035;-73
2022/06/12 02:07:53;;;;;;;7.05;5.20;;;;;;;17.32;100.00;99831.97;4970691;28;20472;-73
2022/06/12 02:10:23;;;;;;;7.95;5.32;;;;;;;17.34;100.00;99829.34;4970803;28;20046;-73
2022/06/12 02:13:14;;;;;;;5.40;4.35;;;;;;;17.25;100.00;99825.00;4986966;28;20407;-69
2022/06/12 02:15:57;;;;;;;6.88;4.60;;;;;;;17.14;100.00;99825.88;4989821;28;20043;-71
2022/06/12 02:18:28;;;;;;;5.13;3.90;;;;;;;17.02;100.00;99825.00;4990377;28;20031;-72
2022/06/12 02:21:01;;;;;;;6.28;4.70;;;;;;;16.51;100.00;99752.84;4990311;28;20046;-72
2022/06/12 02:23:34;;;;;;;6.57;5.43;;;;;;;16.97;100.00;99831.09;4990371;28;20535;-71
2022/06/12 02:26:01;;;;;;;7.40;5.85;;;;;;;16.74;100.00;99798.91;4989968;28;20042;-71
2022/06/12 02:28:37;;;;;;;7.00;5.60;;;;;;;16.91;100.00;99832.78;4990229;28;20113;-73
2022/06/12 02:31:12;;;;;;;6.40;5.40;;;;;;;16.94;100.00;99823.25;4974180;28;20027;-74
2022/06/12 02:33:41;;;;;;;7.15;5.65;;;;;;;17.06;100.00;99829.34;4990321;28;20043;-74
2022/06/12 02:36:17;;;;;;;9.93;6.07;;;;;;;16.83;100.00;99814.53;4989994;28;20058;-73
2022/06/12 02:38:57;;;;;;;8.90;6.00;;;;;;;16.90;100.00;99836.28;4988387;28;20647;-73
2022/06/12 02:41:29;;;;;;;12.90;7.57;;;;;;;16.95;100.00;99832.81;4988542;28;20086;-72
2022/06/12 02:43:59;;;;;;;8.90;7.93;;;;;;;17.07;100.00;99841.53;4989828;28;20687;-74
2022/06/12 02:46:37;;;;;;;12.13;8.43;;;;;;;17.02;100.00;99832.84;4989945;28;20046;-71
2022/06/12 02:49:04;;;;;;;9.68;8.23;;;;;;;17.02;100.00;99851.94;4989800;28;20029;-72
2022/06/12 02:51:43;;;;;;;10.25;8.52;;;;;;;16.90;100.00;99824.09;4989884;28;20038;-73
2022/06/12 02:54:39;;;;;;;9.65;7.97;;;;;;;17.11;100.00;99848.50;5012327;28;20482;-75
2022/06/12 02:57:15;;;;;;;11.98;8.35;;;;;;;16.89;100.00;99796.28;5011743;28;20030;-74
2022/06/12 02:59:59;;;;;;;10.45;9.00;;;;;;;17.24;100.00;99847.59;5011841;28;20033;-74
2022/06/12 03:02:53;;;;;;;13.98;7.88;;;;;;;17.10;100.00;99851.97;5011754;28;20476;-74
2022/06/12 03:05:26;;;;;;;10.05;8.75;;;;;;;16.99;100.00;99833.69;5011877;28;20052;-71
2022/06/12 03:08:01;;;;;;;10.45;8.60;;;;;;;17.07;100.00;99849.34;5011705;28;20040;-74
2022/06/12 03:10:32;;;;;;;9.88;8.90;;;;;;;17.13;100.00;99839.81;5011946;28;20029;-74
2022/06/12 03:12:59;;;;;;;11.10;9.00;;;;;;;16.92;100.00;99835.44;5011738;28;20385;-73
2022/06/12 03:15:28;;;;;;;11.18;9.07;;;;;;;16.95;100.00;99840.66;5011656;28;20493;-72
2022/06/12 03:17:53;;;;;;;12.15;9.30;;;;;;;16.91;100.00;99838.00;5011487;28;20032;-72
2022/06/12 03:20:21;;;;;;;11.15;9.07;;;;;;;17.01;100.00;99847.63;5011413;28;20106;-74
2022/06/12 03:23:01;;;;;;;12.93;9.00;;;;;;;17.08;100.00;99849.34;5011359;28;20034;-74
2022/06/12 03:25:53;;;;;;;12.18;8.45;;;;;;;16.99;100.00;99846.75;5011525;28;20026;-72
2022/06/12 03:28:52;;;;;;;11.05;8.45;;;;;;;16.81;100.00;99824.13;4989213;28;20034;-74
2022/06/12 03:31:33;;;;;;;9.98;8.73;;;;;;;16.99;100.00;99851.97;4989125;28;20863;-71
2022/06/12 03:34:05;;;;;;;10.07;8.88;;;;;;;17.07;100.00;99851.94;4978586;28;20051;-74
2022/06/12 03:36:43;;;;;;;9.63;8.55;;;;;;;17.06;100.00;99832.84;4976494;28;20153;-71
2022/06/12 03:39:22;;;;;;;10.30;8.32;;;;;;;17.24;100.00;99849.34;4969635;28;20186;-71
2022/06/12 03:42:07;;;;;;;10.27;8.98;;;;;;;17.28;100.00;99849.38;4969071;28;20037;-74
2022/06/12 03:44:49;;;;;;;12.57;9.32;;;;;;;17.12;100.00;99824.13;4969566;28;20039;-74
2022/06/12 03:47:23;;;;;;;9.65;8.43;;;;;;;17.13;100.00;99845.03;4969643;28;20046;-72
2022/06/12 03:49:52;;;;;;;10.07;7.97;;;;;;;17.01;100.00;99851.94;4969642;28;20043;-71
2022/06/12 03:52:29;;;;;;;8.88;7.97;;;;;;;16.89;100.00;99853.66;4953295;28;20042;-72
2022/06/12 03:55:10;;;;;;;9.32;7.97;;;;;;;16.90;100.00;99846.72;4969441;28;20066;-73
2022/06/12 03:57:52;;;;;;;10.80;9.00;;;;;;;17.00;100.00;99858.03;4969419;28;20058;-74
2022/06/12 04:00:26;;;;;;;9.43;7.70;;;;;;;16.77;100.00;99830.16;4969466;28;20031;-71
2022/06/12 04:03:20;;;;;;;9.93;7.57;;;;;;;16.89;100.00;99850.19;4969539;28;20512;-74
2022/06/12 04:05:51;;;;;;;10.25;8.48;;;;;;;16.95;100.00;99845.00;4945773;29;20483;-71
2022/06/12 04:08:21;;;;;;;9.45;8.20;;;;;;;17.08;100.00;99851.09;4950544;29;20031;-74
2022/06/12 04:10:48;;;;;;;11.70;8.55;;;;;;;17.17;100.00;99860.66;4950118;29;20076;-71
2022/06/12 04:13:18;;;;;;;8.50;7.65;;;;;;;17.10;100.00;99859.78;4950082;29;20031;-71
2022/06/12 04:15:55;;;;;;;8.68;7.68;;;;;;;17.10;100.00;99852.81;4950100;29;20505;-72
2022/06/12 04:18:22;;;;;;;8.18;6.95;;;;;;;17.18;100.00;99868.47;4949910;29;20042;-74
2022/06/12 04:20:54;;;;;;;9.75;7.70;;;;;;;17.22;100.00;99849.38;4950110;29;20549;-71
2022/06/12 04:23:45;;;;;;;8.70;7.65;;;;;;;17.34;100.00;99855.44;4949953;29;20046;-72
2022/06/12 04:26:35;;;;;;;8.20;7.22;;;;;;;17.36;100.00;99856.28;4950127;29;20031;-74
2022/06/12 04:29:26;;;;;;;7.88;7.07;;;;;;;17.45;100.00;99864.13;4949873;29;20075;-75
2022/06/12 04:31:57;;;;;;;8.60;7.07;;;;;;;17.57;100.00;99850.19;4949829;29;20134;-71
2022/06/12 04:34:36;;;;;;;10.10;7.13;;;;;;;17.65;100.00;99853.66;4949739;29;20171;-72
2022/06/12 04:37:10;;;;;;;8.38;6.70;;;;;;;17.55;100.00;99857.16;4949641;29;20046;-74
2022/06/12 04:39:36;;;;;;;8.05;6.22;;;;;;;16.81;100.00;99766.75;4930571;29;20088;-72
2022/06/12 04:42:03;;;;;;;8.05;6.68;;;;;;;17.39;100.00;99846.72;4965620;28;20061;-72
2022/06/12 04:44:30;;;;;;;9.60;6.57;;;;;;;17.48;100.00;99853.66;5010526;28;20045;-74
2022/06/12 04:46:58;;;;;;;8.63;7.20;;;;;;;17.47;100.00;99870.22;5010695;28;20497;-74
2022/06/12 04:49:26;;;;;;;6.82;6.13;;;;;;;17.15;100.00;99821.53;5010664;28;20464;-71
2022/06/12 04:51:54;;;;;;;7.50;6.70;;;;;;;17.44;100.00;99875.44;5010680;28;20038;-74
2022/06/12 04:54:21;;;;;;;7.78;6.75;;;;;;;17.20;100.00;99861.53;5013089;28;20468;-74
2022/06/12 04:56:47;;;;;;;8.35;6.40;;;;;;;17.19;100.00;99875.44;5014231;28;20113;-74
2022/06/12 04:59:14;;;;;;;8.95;6.32;;;;;;;17.34;100.00;99885.00;5014431;28;20108;-72
2022/06/12 05:01:41;;;;;;;7.72;6.55;;;;;;;17.39;100.00;99888.47;5014208;28;20501;-72
2022/06/12 05:04:07;;;;;;;10.07;7.13;;;;;;;17.12;100.00;99863.25;5014062;28;20037;-73
2022/06/12 05:06:34;;;;;;;8.18;6.78;;;;;;;17.30;100.00;99897.16;5013554;28;20018;-73
2022/06/12 05:09:01;;;;;;;7.32;6.35;;;;;;;17.22;100.00;99878.06;5013862;28;20060;-72
2022/06/12 05:11:30;;;;;;;7.50;6.70;;;;;;;17.26;100.00;99884.16;5014104;28;20026;-72
2022/06/12 05:13:55;;;;;;;9.27;7.20;;;;;;;17.33;100.00;99890.22;5014088;28;20030;-72
2022/06/12 05:16:43;;;;;;;7.80;6.53;;;;;;;17.19;100.00;99885.88;5014047;28;20041;-73
2022/06/12 05:19:13;;;;;;;7.95;6.72;;;;;;;17.24;100.00;99902.38;5012337;28;20474;-76
2022/06/12 05:21:39;;;;;;;7.55;6.15;;;;;;;17.29;100.00;99895.44;5013390;28;20096;-71
2022/06/12 05:24:05;;;;;;;7.13;6.32;;;;;;;17.38;100.00;99901.53;5012904;28;20121;-74
2022/06/12 05:26:33;;;;;;;10.65;6.78;;;;;;;17.43;100.00;99910.22;5012903;28;20030;-73
2022/06/12 05:29:00;;;;;;;8.38;6.22;;;;;;;17.41;100.00;99891.09;5030637;28;20530;-71
2022/06/12 05:31:26;;;;;;;15.35;5.57;;;;;;;17.50;100.00;99893.69;5029881;28;20076;-73
2022/06/12 05:33:53;;;;;;;6.60;5.35;;;;;;;17.45;100.00;99893.69;5027217;28;20049;-74
2022/06/12 05:36:19;;;;;;;6.68;4.70;;;;;;;17.43;100.00;99895.44;5021680;28;20049;-74
2022/06/12 05:38:45;;;;;;;5.40;4.25;;;;;;;17.38;100.00;99909.34;5020556;28;20037;-74
2022/06/12 05:41:12;;;;;;;7.80;5.25;;;;;;;17.41;100.00;99917.19;5010871;28;20081;-74
2022/06/12 05:43:40;;;;;;;6.57;5.00;;;;;;;17.38;100.00;99912.81;5026892;28;20033;-74
2022/06/12 05:46:10;;;;;;;6.70;4.93;;;;;;;17.40;100.00;99913.69;5013600;28;20044;-74
2022/06/12 05:48:36;;;;;;;5.88;4.57;;;;;;;17.45;100.00;99925.00;5029582;28;20454;-73
2022/06/12 05:51:02;;;;;;;6.07;4.70;;;;;;;17.37;100.00;99908.50;5010955;28;20044;-71
2022/06/12 05:53:30;;;;;;;9.32;5.07;;;;;;;17.33;100.00;99919.78;5012865;28;20042;-71
2022/06/12 05:55:57;;;;;;;6.35;5.35;;;;;;;17.24;100.00;99904.13;5010723;28;20076;-74
2022/06/12 05:58:25;;;;;;;6.88;5.07;;;;;;;17.29;100.00;99918.06;5010240;28;20026;-74
2022/06/12 06:00:52;;;;;;;6.60;5.05;;;;;;;17.30;100.00;99930.22;5017095;28;20095;-71
2022/06/12 06:03:18;;;;;;;6.35;5.28;;;;;;;17.34;100.00;99931.09;5018131;28;20129;-73
2022/06/12 06:05:47;;;;;;;8.00;5.10;;;;;;;17.30;100.00;99932.84;5024792;28;20041;-73
2022/06/12 06:08:13;;;;;;;6.63;4.57;;;;;;;17.33;100.00;99924.13;5012979;28;20101;-76
2022/06/12 06:10:40;;;;;;;9.75;4.53;;;;;;;17.34;100.00;99920.66;5012886;28;20029;-73
2022/06/12 06:13:06;;;;;;;5.80;4.93;;;;;;;17.44;100.00;99922.41;5012921;28;20026;-73
2022/06/12 06:15:32;;;;;;;5.10;4.50;;;;;;;17.51;100.00;99923.25;5011982;28;20030;-73
2022/06/12 06:17:57;;;;;;;6.57;4.22;;;;;;;17.61;100.00;99930.25;5012762;28;20026;-73
2022/06/12 06:20:26;;;;;;;11.45;4.63;;;;;;;17.59;100.00;99931.97;5012725;28;20117;-73
2022/06/12 06:22:54;;;;;;;7.18;4.78;;;;;;;17.63;100.00;99933.69;5012238;28;20110;-74
2022/06/12 06:25:22;;;;;;;5.68;4.20;;;;;;;17.67;100.00;99929.34;5012656;28;20034;-74
2022/06/12 06:27:48;;;;;;;6.00;5.00;;;;;;;17.74;100.00;99928.47;5012590;28;20108;-74
2022/06/12 06:30:14;;;;;;;5.93;5.07;;;;;;;17.80;100.00;99928.47;5011497;28;20030;-74
2022/06/12 06:32:41;;;;;;;5.78;4.78;;;;;;;17.85;100.00;99923.25;5003278;28;20539;-73
2022/06/12 06:35:07;;;;;;;5.93;5.32;;;;;;;18.01;100.00;99929.34;4992459;28;20503;-73
2022/06/12 06:37:33;;;;;;;7.25;5.47;;;;;;;17.92;100.00;99932.81;4991148;28;20031;-73
2022/06/12 06:39:59;;;;;;;6.45;5.28;;;;;;;17.73;100.00;99896.28;5012084;28;20072;-74
2022/06/12 06:42:25;;;;;;;9.00;5.40;;;;;;;17.98;100.00;99930.22;5012079;28;20049;-76
2022/06/12 06:47:35;;;;;;;11.80;6.30;;;;;;;18.09;100.00;99917.13;5012516;28;20096;-73
2022/06/12 06:50:05;;;;;;;7.57;5.80;;;;;;;18.10;100.00;99929.31;5012257;28;20109;-71
2022/06/12 06:52:31;;;;;;;7.47;5.78;;;;;;;18.14;100.00;99924.94;5011948;28;20029;-74
2022/06/12 06:54:57;;;;;;;9.60;5.65;;;;;;;18.00;100.00;99899.72;5009592;28;20049;-74
2022/06/12 06:57:22;;;;;;;7.72;6.05;;;;;;;18.20;100.00;99919.72;5011817;28;20033;-73
2022/06/12 06:59:48;;;;;;;6.82;5.50;;;;;;;18.35;100.00;99926.63;5011976;28;20025;-73
2022/06/12 07:02:13;;;;;;;8.80;6.03;;;;;;;18.37;100.00;99917.91;5011766;28;20053;-73
2022/06/12 07:04:40;;;;;;;12.15;6.22;;;;;;;18.26;100.00;99864.81;5012063;28;20029;-73
2022/06/12 07:07:05;;;;;;;7.28;5.20;;;;;;;18.65;100.00;99916.91;5011977;28;20060;-73
2022/06/12 07:09:31;;;;;;;5.88;4.80;;;;;;;18.49;100.00;99903.03;5011764;28;20519;-73
2022/06/12 07:11:57;;;;;;;9.45;5.50;;;;;;;18.64;100.00;99918.66;5011489;28;20029;-73
2022/06/12 07:14:24;;;;;;;7.20;5.55;;;;;;;18.59;100.00;99931.75;5011893;28;20495;-72
2022/06/12 07:16:49;;;;;;;6.55;5.18;;;;;;;18.66;100.00;99929.09;5010786;28;20021;-71
2022/06/12 07:19:15;;;;;;;6.20;5.05;;;;;;;18.58;100.00;99919.56;5011954;28;20084;-73
2022/06/12 07:21:40;;;;;;;7.43;5.72;;;;;;;18.46;100.00;99935.28;5011655;28;20026;-73
2022/06/12 07:24:06;;;;;;;8.45;6.68;;;;;;;18.40;100.00;99896.09;5011564;28;20128;-73
2022/06/12 07:26:36;;;;;;;9.13;7.28;;;;;;;18.58;100.00;99932.63;5009022;28;20125;-74
2022/06/12 07:29:02;;;;;;;8.88;7.35;;;;;;;18.51;100.00;99943.97;5011589;28;20037;-72
2022/06/12 07:31:28;;;;;;;9.23;7.75;;;;;;;18.46;100.00;99939.66;5011224;28;20033;-74
2022/06/12 07:33:53;;;;;;;9.75;7.30;;;;;;;18.41;100.00;99944.91;5011431;28;20030;-73
2022/06/12 07:36:21;;;;;;;8.98;7.35;;;;;;;18.41;100.00;99955.34;5011404;28;20142;-74
2022/06/12 07:38:49;;;;;;;8.93;5.82;;;;;;;18.33;100.00;99944.03;5011337;28;20029;-73
2022/06/12 07:41:16;;;;;;;8.05;6.50;;;;;;;18.21;100.00;99911.84;5011522;28;20054;-73
2022/06/12 07:43:43;;;;;;;7.32;5.90;;;;;;;18.32;100.00;99947.53;5011189;28;20029;-73
2022/06/12 07:46:11;;;;;;;7.57;6.43;;;;;;;18.03;100.00;99930.19;5011299;28;20033;-74
2022/06/12 07:48:38;;;;;;;7.93;7.00;;;;;;;18.15;100.00;99945.84;5011405;28;20032;-73
2022/06/12 07:51:07;;;;;;;8.77;7.13;;;;;;;18.31;100.00;99943.19;5010895;28;20041;-76
2022/06/12 07:53:34;;;;;;;8.27;7.40;;;;;;;18.43;100.00;99948.38;5011326;28;20042;-74
2022/06/12 07:56:01;;;;;;;8.75;6.32;;;;;;;18.19;100.00;99918.81;5011135;28;20056;-74
2022/06/12 07:58:27;;;;;;;7.00;6.30;;;;;;;18.36;100.00;99944.91;5011228;28;20079;-73
2022/06/12 08:00:56;;;;;;;9.88;6.93;;;;;;;18.45;100.00;99953.59;5011159;28;20040;-73
2022/06/12 08:03:22;;;;;;;8.38;7.50;;;;;;;18.51;100.00;99950.97;5011128;28;20030;-73
2022/06/12 08:05:48;;;;;;;8.82;6.70;;;;;;;18.58;100.00;99950.06;5011074;28;20532;-74
2022/06/12 08:08:13;;;;;;;7.38;6.50;;;;;;;18.59;100.00;99954.41;5011188;28;20156;-74
2022/06/12 08:10:39;;;;;;;6.50;5.72;;;;;;;18.69;100.00;99950.00;5011040;28;20045;-73
2022/06/12 08:13:07;;;;;;;8.13;7.20;;;;;;;18.89;100.00;99950.78;5011237;28;20037;-74
2022/06/12 08:15:34;;;;;;;8.70;6.85;;;;;;;19.04;100.00;99952.47;5010424;28;20044;-74
2022/06/12 08:18:00;;;;;;;10.10;6.80;;;;;;;19.17;100.00;99949.78;5024868;28;20430;-74
2022/06/12 08:20:31;;;;;;;10.13;7.85;;;;;;;19.24;100.00;99949.72;5010909;28;20026;-73
2022/06/12 08:23:29;;;;;;;7.82;6.60;;;;;;;19.35;100.00;99956.59;5010913;28;20033;-74
2022/06/12 08:26:09;;;;;;;7.18;6.03;;;;;;;19.35;100.00;99956.59;5010878;28;20022;-74
2022/06/12 08:28:54;;;;;;;;;;;;;;;19.48;100.00;99953.03;5014720;28;20080;-74
2022/06/12 08:31:24;;;;;;;7.32;5.80;;;;;;;19.50;100.00;99956.50;5014608;28;20525;-74
2022/06/12 08:33:53;;;;;;;9.32;6.60;;;;;;;19.64;100.00;99948.53;5013332;28;20038;-77
2022/06/12 08:36:20;;;;;;;7.70;6.18;;;;;;;19.71;100.00;99959.81;5014620;28;20080;-74
2022/06/12 08:38:47;;;;;;;6.82;6.13;;;;;;;19.86;100.00;99953.59;5014685;28;20041;-73
2022/06/12 08:41:24;;;;;;;9.20;6.45;;;;;;;19.92;100.00;99948.28;5014652;28;20037;-74
2022/06/12 08:44:14;;;;;;;9.43;7.05;;;;;;;20.00;100.00;99950.84;5014550;28;20037;-74
2022/06/12 08:46:45;;;;;;;8.63;6.38;;;;;;;20.09;100.00;99949.88;5014645;28;20034;-74
2022/06/12 08:49:22;;;;;;;8.85;6.55;;;;;;;20.16;100.00;99952.44;5014533;28;20026;-74
2022/06/12 08:52:25;;;;;;;7.47;6.68;;;;;;;20.28;100.00;99950.56;5014095;28;20484;-74
2022/06/12 08:54:57;;;;;;;7.50;6.15;;;;;;;20.20;100.00;99927.91;4972497;28;20074;-76
2022/06/12 08:57:34;;;;;;;9.18;6.22;;;;;;;20.43;100.00;99952.13;4972386;28;20035;-74
2022/06/12 09:00:14;;;;;;;8.27;6.82;;;;;;;20.55;100.00;99953.72;4970135;28;20133;-74
2022/06/12 09:02:42;;;;;;;6.63;5.88;;;;;;;20.46;100.00;99944.22;4968833;28;20043;-74
2022/06/12 09:05:11;;;;;;;8.85;5.85;;;;;;;20.32;100.00;99947.84;4970621;28;20038;-74
2022/06/12 09:07:55;;;;;;;;;;;;;;;20.40;100.00;99950.41;4971440;28;20121;-72
2022/06/12 09:10:33;;;;;;;7.25;5.53;;;;;;;20.46;100.00;99941.59;4972368;28;19918;-74
2022/06/12 09:13:15;;;;;;;7.05;5.53;;;;;;;20.53;100.00;99948.50;4972291;28;20043;-74
2022/06/12 09:16:05;;;;;;;7.60;6.28;;;;;;;20.54;100.00;99947.63;4972210;28;20509;-74
2022/06/12 09:18:58;;;;;;;6.90;5.93;;;;;;;20.63;100.00;99938.78;4955823;28;20043;-74
2022/06/12 09:21:51;;;;;;;7.45;5.72;;;;;;;20.74;100.00;99944.75;4972121;28;20038;-75
2022/06/12 09:24:29;;;;;;;7.35;6.13;;;;;;;20.63;100.00;99955.34;4971982;28;20130;-74
2022/06/12 09:27:02;;;;;;;7.70;5.72;;;;;;;20.67;100.00;99956.19;4972054;28;20493;-74
2022/06/12 09:29:56;;;;;;;7.43;6.60;;;;;;;20.89;100.00;99953.34;4971806;28;20042;-75
2022/06/12 09:32:54;;;;;;;8.48;7.47;;;;;;;21.08;100.00;99954.78;4986508;28;20042;-75
2022/06/12 09:35:49;;;;;;;8.00;6.87;;;;;;;21.25;100.00;99961.56;4993932;28;20054;-75
2022/06/12 09:38:40;;;;;;;8.55;6.60;;;;;;;21.13;100.00;99952.09;4993563;28;20030;-75
2022/06/12 09:41:12;;;;;;;7.43;6.50;;;;;;;21.12;100.00;99956.50;4993873;28;20388;-74
2022/06/12 09:43:56;;;;;;;9.70;6.95;;;;;;;21.07;100.00;99963.56;4993737;28;20042;-75
2022/06/12 09:47:13;;;;;;;6.50;5.90;;;;;;;21.08;100.00;99949.53;4993807;28;20030;-75
2022/06/12 09:50:17;;;;;;;8.20;6.07;;;;;;;20.87;100.00;99952.47;4933108;29;20047;-76
2022/06/12 09:53:00;;;;;;;6.45;5.85;;;;;;;20.89;100.00;99953.34;4913870;29;20104;-73
2022/06/12 09:55:51;;;;;;;8.52;7.07;;;;;;;20.94;100.00;99954.13;4914151;29;20078;-73
2022/06/12 09:58:29;;;;;;;8.25;6.00;;;;;;;21.01;100.00;99958.41;4876448;29;20114;-76
2022/06/12 10:01:11;;;;;;;7.90;7.10;;;;;;;20.98;100.00;99932.19;4876300;29;20049;-76
2022/06/12 10:03:48;;;;;;;7.80;6.97;;;;;;;20.93;100.00;99920.91;4876163;29;20041;-75
2022/06/12 10:06:24;;;;;;;7.32;6.60;;;;;;;20.97;100.00;99952.34;4876185;29;20051;-75
2022/06/12 10:09:17;;;;;;;6.95;5.07;;;;;;;20.78;100.00;99963.97;4867298;29;20068;-76
2022/06/12 10:12:03;;;;;;;7.13;6.43;;;;;;;20.86;100.00;99962.13;4861700;29;20041;-75
2022/06/12 10:14:34;;;;;;;6.80;6.10;;;;;;;20.88;100.00;99957.69;4862810;29;20041;-74
2022/06/12 10:17:11;;;;;;;7.53;6.00;;;;;;;20.76;100.00;99958.75;4852060;29;20084;-75
2022/06/12 10:19:54;;;;;;;6.90;6.18;;;;;;;20.71;100.00;99938.66;4869119;29;20048;-75
2022/06/12 10:22:34;;;;;;;6.80;5.13;;;;;;;20.96;100.00;99950.59;4871486;29;20177;-77
2022/06/12 10:25:04;;;;;;;10.38;6.20;;;;;;;20.98;100.00;99942.69;4858276;29;20048;-76
2022/06/12 10:27:51;;;;;;;;;;;;;;;20.91;100.00;99941.03;4962465;28;20043;-75
2022/06/12 10:30:27;;;;;;;9.00;6.50;;;;;;;21.04;100.00;99947.84;4968341;28;19957;-75
2022/06/12 10:32:56;;;;;;;6.43;5.78;;;;;;;20.85;100.00;99915.78;4962468;28;20517;-76
2022/06/12 10:35:25;;;;;;;6.95;6.10;;;;;;;21.07;100.00;99939.06;4988908;28;20523;-76
2022/06/12 10:37:51;;;;;;;7.43;5.67;;;;;;;21.13;100.00;99944.22;5003749;28;20028;-76
2022/06/12 10:40:23;;;;;;;8.30;6.05;;;;;;;20.97;100.00;99944.47;5018423;28;20476;-75
2022/06/12 10:42:51;;;;;;;6.65;5.35;;;;;;;20.98;100.00;99946.16;4992625;28;20030;-76
2022/06/12 10:45:22;;;;;;;7.70;6.20;;;;;;;21.14;100.00;99938.94;4992472;28;20404;-75
2022/06/12 10:47:50;;;;;;;8.65;5.57;;;;;;;21.06;100.00;99913.69;4992411;28;20108;-75
2022/06/12 10:50:49;;;;;;;7.03;5.97;;;;;;;21.25;100.00;99936.16;4992584;28;20033;-75
2022/06/12 10:53:17;;;;;;;7.65;5.97;;;;;;;21.49;100.00;99940.13;4992434;28;20483;-76
2022/06/12 10:56:26;;;;;;;7.40;5.97;;;;;;;21.60;100.00;99944.41;4991306;28;20069;-76
2022/06/12 10:59:44;;;;;;;7.55;5.63;;;;;;;21.79;100.00;99948.44;4992781;28;20042;-75
2022/06/12 11:02:35;;;;;;;8.80;5.97;;;;;;;22.02;100.00;99954.16;4970231;28;20050;-79
2022/06/12 11:05:25;;;;;;;6.70;5.40;;;;;;;22.10;100.00;99947.00;4969479;28;20054;-71
2022/06/12 11:08:20;;;;;;;6.07;5.00;;;;;;;22.37;100.00;99928.94;4969983;28;20023;-75
2022/06/12 11:10:58;;;;;;;5.10;4.28;;;;;;;22.60;100.00;99944.28;4969754;28;20158;-76
2022/06/12 11:13:36;;;;;;;8.10;5.20;;;;;;;22.32;100.00;99851.91;4970304;28;20536;-75
2022/06/12 11:16:09;;;;;;;5.47;3.50;;;;;;;22.68;100.00;99937.09;4970210;28;20073;-78
2022/06/12 11:19:05;;;;;;;6.28;4.18;;;;;;;22.61;100.00;99946.03;4970043;28;20035;-74
2022/06/12 11:22:08;;;;;;;4.45;3.63;;;;;;;22.38;100.00;99947.38;4969928;28;20039;-77
2022/06/12 11:25:13;;;;;;;6.63;4.30;;;;;;;22.21;100.00;99939.78;4893278;29;20099;-77
2022/06/12 11:27:49;;;;;;;5.55;4.32;;;;;;;21.76;100.00;99905.59;4893325;29;20621;-74
2022/06/12 11:30:33;;;;;;;3.17;2.67;;;;;;;21.70;100.00;99940.72;4907371;29;20036;-74
2022/06/12 11:33:18;;;;;;;3.53;3.05;;;;;;;21.67;100.00;99932.91;4909809;29;20060;-77
2022/06/12 11:36:05;;;;;;;4.38;3.20;;;;;;;21.72;100.00;99936.31;4913462;29;20048;-74
2022/06/12 11:38:37;;;;;;;3.83;3.15;;;;;;;21.75;100.00;99940.63;4947635;29;20038;-74
2022/06/12 11:41:14;;;;;;;3.42;2.83;;;;;;;21.78;100.00;99936.19;4949017;29;20501;-77
2022/06/12 11:43:43;;;;;;;4.05;2.72;;;;;;;21.82;100.00;99931.75;4949144;29;20031;-73
2022/06/12 11:46:34;;;;;;;3.40;3.03;;;;;;;21.91;100.00;99931.56;4949421;29;20130;-74
2022/06/12 11:49:15;;;;;;;3.38;2.90;;;;;;;22.10;100.00;99934.72;4946822;29;20039;-73
2022/06/12 11:51:53;;;;;;;5.63;3.08;;;;;;;22.08;100.00;99939.16;4949797;29;20050;-72
2022/06/12 11:54:43;;;;;;;3.75;2.85;;;;;;;22.13;100.00;99939.03;4952350;29;20411;-73
2022/06/12 11:57:36;;;;;;;4.13;3.42;;;;;;;22.19;100.00;99923.16;4949331;29;20417;-73
2022/06/12 12:00:05;;;;;;;3.80;3.00;;;;;;;22.23;100.00;99931.84;4938526;29;20091;-72
2022/06/12 12:02:46;;;;;;;6.32;3.53;;;;;;;22.19;100.00;99932.81;5003447;28;20048;-72